Overview Statistics Trail Chart Weather Telemetry Raw packets
 

This is the latest recevied weather packets stored in our database for station/object IU3OVK-13. If no packets are shown the sender has not sent any weather packets the latest 10 day(s).

<< 9 10 11 12 13 14 15 >>
Time Temp. Humidity Pressure Rain* Wind** Luminosity Snow
1788431828 45.56° C 59% 961 hPa - - - -
1788431208 43.33° C 63% 973.9 hPa - - - -
1788430588 47.78° C 61% 960.3 hPa - - - -
1788429968 45.56° C 65% 981.9 hPa - - - -
1788429382 46.67° C 64% 971.9 hPa - - - -
1788429348 46.67° C 64% 971.9 hPa - - - -
1788428727 42.78° C 68% 991.9 hPa - - - -
1788428108 45.56° C 65% 958.8 hPa - - - -
1788427487 45° C 67% 969.3 hPa - - - -
1788426867 41.67° C 73% 988.2 hPa - - - -
1788426247 41.67° C 76% 994.7 hPa - - - -
1788425006 38.33° C 79% 999.8 hPa - - - -
1788424386 37.22° C 82% 1001.2 hPa - - - -
1788423766 35.56° C 94% 1012.4 hPa - - - -
1788423146 36.11° C 92% 1009.1 hPa - - - -
1788422527 36.11° C 92% 1012.1 hPa - - - -
1788421905 36.67° C 87% 1004.5 hPa - - - -
1788421285 36.11° C 95% 1011.3 hPa - - - -
1788420665 35.56° C 99% 1011.1 hPa - - - -
1788420045 35° C 99% 1011.2 hPa - - - -
1788419425 33.33° C 99% 1013.1 hPa - - - -
1788418805 36.11° C 99% 1009.7 hPa - - - -
1788418184 32.22° C 99% 1012.7 hPa - - - -
1788417564 33.33° C 99% 1012.5 hPa - - - -
1788416944 31.11° C 99% 1013.9 hPa - - - -

* Rain since midnight (hover to see other rain measurements)
** Current wind speed in m/s (hover to see current wind gust speed)